Airfield :
LOGIN :

Register | Disclaimer

   EN    FR    IT 

 










Legend :    VFR   Marginal VFR   IFR   Intensive IFR   Very Intensive IFR
Visi :
Ceiling :
>= 8 km
>= 3000ft
5 to 8 km
1000 to 3000 ft
1500m to 5 km
500 to 1000 ft
800 to 1500m
200 to 500 ft
< 800m
< 200 ft
Symbols :   Thunderstorms  Fog  Heavy snow  Heavy precipitations  Wind > 20 kt
SIGMETs :     Misc.  Thunderstorms  Icing  Turbulence  Mountain Waves  Volcanic Ashes






- Airport Elevation : 2767 ft


LTAE - Akıncı Air Base

CURRENT METAR :
  • 012250Z 33010KT CAVOK 15/14 Q1016 NOSIG RMK RWY21 01007KT

EXPIRED METARs :
  • 011550Z 33006KT 9999 SCT040 21/16 Q1015 RESHRA NOSIG RMK RWY21 32006KT
  • 012150Z 04004KT 360V080 CAVOK 17/14 Q1016 NOSIG RMK RWY21 03005KT
  • 012050Z 01008KT CAVOK 16/15 Q1016 NOSIG RMK RWY21 03007KT

TAF TAF LTAE
Valid from the 01 at 21:00 until the 02 at 06:00 UTC


011940Z 0121/0206 VRB02KT CAVOK



MET'MAP, your aeronautical weather chart ! - Copyright ORBIFLY December 2007 - Disclaimer

ORBIFLY MET'MAP TEAM :

Programming & Development : Alexandra Zaïnal
Original concept : Baudouin d'Aumeries
Technical & hardware support : Manuel Goepfert
Assistance : Marc-Olivier Méhu




SOURCES & CREDITS :

   NOAA